createdAt,value
2022-09-30T00:01:05.786Z,16.50
2022-09-30T00:03:32.573Z,18.10
2022-09-30T00:06:08.448Z,17.10
2022-09-30T00:08:39.841Z,22.03
2022-09-30T00:11:13.922Z,18.90
2022-09-30T00:13:41.069Z,21.67
2022-09-30T00:16:10.001Z,21.60
2022-09-30T00:18:37.943Z,16.47
2022-09-30T00:21:05.556Z,19.90
2022-09-30T00:23:32.930Z,19.63
2022-09-30T00:26:01.948Z,23.10
2022-09-30T00:28:29.867Z,18.43
2022-09-30T00:31:01.747Z,23.07
2022-09-30T00:33:28.921Z,22.10
2022-09-30T00:35:55.571Z,23.93
2022-09-30T00:38:22.245Z,20.07
2022-09-30T00:40:49.654Z,25.20
2022-09-30T00:43:21.970Z,25.23
2022-09-30T00:45:57.874Z,29.77
2022-09-30T00:48:33.741Z,107.93
2022-09-30T00:51:02.863Z,36.23
2022-09-30T00:53:41.700Z,28.53
2022-09-30T00:56:17.062Z,21.30
2022-09-30T00:58:53.054Z,19.13
2022-09-30T01:01:20.901Z,22.70
2022-09-30T01:03:52.289Z,24.80
2022-09-30T01:06:22.412Z,23.73
2022-09-30T01:08:49.479Z,23.07
2022-09-30T01:11:17.098Z,21.27
2022-09-30T01:13:47.652Z,22.70
2022-09-30T01:16:45.248Z,25.97
2022-09-30T01:19:36.230Z,22.80
2022-09-30T01:22:27.431Z,22.50
2022-09-30T01:25:23.815Z,31.17
2022-09-30T01:28:18.778Z,29.00
2022-09-30T01:31:33.860Z,27.40
2022-09-30T01:34:26.425Z,27.40
2022-09-30T01:37:13.889Z,27.80
2022-09-30T01:39:59.264Z,28.27
2022-09-30T01:42:33.854Z,25.47
2022-09-30T01:45:22.421Z,27.33
2022-09-30T01:47:56.817Z,25.37
2022-09-30T01:50:36.319Z,27.73
2022-09-30T01:53:16.194Z,27.47
2022-09-30T01:55:53.091Z,30.70
2022-09-30T01:58:33.170Z,51.20
2022-09-30T02:01:06.498Z,40.10
2022-09-30T02:03:49.001Z,31.83
2022-09-30T02:06:20.641Z,31.20
2022-09-30T02:09:03.328Z,27.63
2022-09-30T02:11:36.193Z,27.93
2022-09-30T02:14:08.998Z,27.03
2022-09-30T02:16:42.050Z,24.80
2022-09-30T02:19:18.233Z,25.90
2022-09-30T02:21:52.930Z,28.43
2022-09-30T02:24:23.903Z,33.53
2022-09-30T02:26:54.866Z,28.20
2022-09-30T02:29:28.423Z,32.27
2022-09-30T02:31:59.654Z,28.80
2022-09-30T02:34:36.163Z,30.10
2022-09-30T02:37:10.106Z,29.20
2022-09-30T02:40:06.163Z,31.83
2022-09-30T02:42:33.478Z,33.03
2022-09-30T02:45:08.807Z,28.03
2022-09-30T02:48:13.635Z,27.27
2022-09-30T02:50:51.894Z,25.63
2022-09-30T02:53:36.451Z,26.80
2022-09-30T02:56:29.305Z,26.63
2022-09-30T02:58:57.680Z,31.77
2022-09-30T03:01:25.310Z,26.07
2022-09-30T03:03:57.652Z,26.73
2022-09-30T03:06:25.257Z,27.80
2022-09-30T03:08:53.245Z,29.67
2022-09-30T03:11:24.246Z,28.03
2022-09-30T03:14:16.358Z,31.50
2022-09-30T03:17:10.316Z,29.43
2022-09-30T03:20:12.004Z,30.83
2022-09-30T03:22:57.971Z,37.73
2022-09-30T03:25:40.474Z,51.53
2022-09-30T03:28:35.387Z,44.63
2022-09-30T03:32:00.522Z,39.53
2022-09-30T03:34:44.382Z,34.00
2022-09-30T03:37:30.229Z,32.33
2022-09-30T03:39:59.612Z,35.20
2022-09-30T03:42:41.922Z,38.53
2022-09-30T03:45:20.195Z,37.53
2022-09-30T03:47:53.736Z,41.27
2022-09-30T03:50:24.643Z,35.27
2022-09-30T03:52:52.351Z,36.13
2022-09-30T03:55:20.018Z,33.73
2022-09-30T03:57:46.676Z,34.23
2022-09-30T04:00:13.944Z,38.57
2022-09-30T04:02:40.800Z,36.60
2022-09-30T04:05:08.701Z,31.23
2022-09-30T04:07:35.541Z,31.57
2022-09-30T04:10:02.458Z,32.63
2022-09-30T04:12:29.094Z,34.93
2022-09-30T04:14:55.798Z,36.87
2022-09-30T04:17:23.123Z,35.27
2022-09-30T04:19:50.277Z,34.93
2022-09-30T04:22:16.956Z,35.53
2022-09-30T04:24:43.978Z,35.17
2022-09-30T04:27:10.845Z,37.40
2022-09-30T04:29:37.554Z,38.87
2022-09-30T04:32:04.691Z,40.63
2022-09-30T04:34:31.539Z,32.67
2022-09-30T04:36:58.276Z,31.33
2022-09-30T04:39:26.259Z,32.80
2022-09-30T04:41:54.047Z,41.07
2022-09-30T04:44:21.536Z,36.70
2022-09-30T04:46:48.270Z,34.07
2022-09-30T04:49:15.011Z,36.00
2022-09-30T04:51:46.072Z,36.67
2022-09-30T04:54:13.534Z,43.77
2022-09-30T04:56:40.337Z,45.97
2022-09-30T04:59:07.365Z,40.00
2022-09-30T05:01:34.649Z,42.27
2022-09-30T05:04:01.886Z,42.07
2022-09-30T05:06:28.811Z,45.50
2022-09-30T05:08:55.633Z,49.30
2022-09-30T05:11:22.886Z,52.60
2022-09-30T05:13:51.118Z,53.50
2022-09-30T05:16:18.534Z,49.63
2022-09-30T05:18:46.183Z,51.57
2022-09-30T05:21:18.198Z,49.23
2022-09-30T05:23:45.221Z,49.63
2022-09-30T05:26:12.981Z,47.27
2022-09-30T05:28:41.929Z,55.00
2022-09-30T05:31:09.270Z,48.10
2022-09-30T05:33:36.316Z,47.17
2022-09-30T05:36:06.316Z,50.40
2022-09-30T05:38:34.333Z,48.73
2022-09-30T05:41:12.690Z,47.80
2022-09-30T05:43:41.271Z,56.40
2022-09-30T05:46:08.342Z,44.93
2022-09-30T05:48:35.099Z,49.13
2022-09-30T05:51:02.373Z,47.97
2022-09-30T05:53:32.191Z,51.10
2022-09-30T05:55:59.625Z,56.30
2022-09-30T05:58:27.849Z,50.47
2022-09-30T06:00:55.287Z,54.97
2022-09-30T06:03:22.114Z,49.23
2022-09-30T06:05:49.154Z,55.23
2022-09-30T06:08:16.032Z,57.07
2022-09-30T06:10:44.405Z,49.30
2022-09-30T06:13:11.601Z,49.27
2022-09-30T06:15:39.757Z,49.60
2022-09-30T06:18:08.001Z,53.87
2022-09-30T06:20:34.941Z,53.30
2022-09-30T06:23:02.066Z,49.20
2022-09-30T06:25:30.619Z,46.33
2022-09-30T06:27:58.293Z,52.30
2022-09-30T06:30:25.259Z,50.73
2022-09-30T06:32:52.141Z,46.63
2022-09-30T06:35:20.563Z,45.27
2022-09-30T06:37:51.477Z,46.10
2022-09-30T06:40:18.516Z,47.90
2022-09-30T06:42:45.227Z,39.00
2022-09-30T06:45:23.409Z,41.97
2022-09-30T06:48:01.316Z,45.27
2022-09-30T06:50:29.515Z,49.43
2022-09-30T06:53:01.122Z,43.50
2022-09-30T06:55:29.381Z,48.17
2022-09-30T06:57:57.402Z,43.27
2022-09-30T07:00:26.218Z,39.93
2022-09-30T07:02:56.761Z,40.60
2022-09-30T07:05:25.770Z,34.43
2022-09-30T07:07:53.347Z,35.17
2022-09-30T07:10:21.067Z,38.07
2022-09-30T07:12:51.679Z,33.00
2022-09-30T07:15:23.309Z,30.57
2022-09-30T07:18:00.691Z,31.03
2022-09-30T07:20:27.462Z,27.07
2022-09-30T07:22:54.220Z,25.13
2022-09-30T07:25:20.919Z,25.13
2022-09-30T07:27:48.028Z,27.23
2022-09-30T07:30:24.549Z,22.13
2022-09-30T07:32:53.558Z,31.23
2022-09-30T07:35:20.801Z,23.53
2022-09-30T07:37:47.743Z,22.40
2022-09-30T07:40:15.308Z,18.53
2022-09-30T07:42:45.831Z,18.43
2022-09-30T07:45:17.080Z,18.13
2022-09-30T07:47:43.973Z,19.43
2022-09-30T07:50:12.489Z,17.63
2022-09-30T07:52:39.385Z,13.17
2022-09-30T07:55:06.795Z,13.93
2022-09-30T07:57:33.506Z,13.77
2022-09-30T08:00:08.144Z,13.82
2022-09-30T08:02:46.949Z,15.23
2022-09-30T08:05:13.927Z,15.23
2022-09-30T08:07:40.680Z,14.80
2022-09-30T08:10:07.823Z,14.13
2022-09-30T08:12:35.360Z,12.20
2022-09-30T08:15:02.244Z,14.83
2022-09-30T08:17:29.205Z,12.73
2022-09-30T08:19:55.889Z,14.77
2022-09-30T08:22:23.905Z,12.57
2022-09-30T08:24:50.647Z,11.48
2022-09-30T08:27:17.382Z,11.48
2022-09-30T08:30:04.288Z,13.00
2022-09-30T08:32:31.539Z,12.57
2022-09-30T08:34:58.460Z,10.93
2022-09-30T08:37:25.162Z,10.43
2022-09-30T08:39:51.859Z,10.50
2022-09-30T08:42:37.178Z,14.10
2022-09-30T08:45:38.049Z,10.73
2022-09-30T08:48:50.765Z,7.45
2022-09-30T08:51:39.035Z,6.72
2022-09-30T08:54:13.513Z,8.95
2022-09-30T08:56:40.166Z,8.37
2022-09-30T08:59:27.079Z,9.13
2022-09-30T09:02:02.399Z,8.23
2022-09-30T09:04:29.487Z,8.82
2022-09-30T09:07:06.221Z,9.35
2022-09-30T09:10:06.381Z,7.67
2022-09-30T09:12:49.866Z,8.45
2022-09-30T09:15:42.719Z,8.77
2022-09-30T09:18:28.334Z,8.07
2022-09-30T09:21:03.397Z,8.10
2022-09-30T09:23:33.510Z,7.18
2022-09-30T09:26:00.491Z,8.48
2022-09-30T09:28:37.100Z,8.13
2022-09-30T09:31:05.131Z,7.30
2022-09-30T09:33:39.885Z,6.85
2022-09-30T09:36:12.966Z,7.60
2022-09-30T09:39:07.639Z,7.17
2022-09-30T09:41:52.607Z,6.07
2022-09-30T09:44:21.982Z,4.72
2022-09-30T09:46:55.477Z,5.05
2022-09-30T09:49:24.217Z,5.05
2022-09-30T09:52:13.161Z,6.05
2022-09-30T09:54:45.343Z,5.80
2022-09-30T09:57:15.789Z,5.30
2022-09-30T10:00:21.815Z,5.70
2022-09-30T10:03:18.527Z,6.18
2022-09-30T10:05:47.747Z,7.15
2022-09-30T10:08:21.404Z,6.53
2022-09-30T10:10:53.809Z,4.40
2022-09-30T10:13:26.487Z,5.35
2022-09-30T10:15:56.216Z,4.85
2022-09-30T10:18:28.046Z,5.10
2022-09-30T10:21:00.793Z,4.30
2022-09-30T10:23:38.039Z,3.88
2022-09-30T10:26:04.872Z,5.70
2022-09-30T10:28:44.454Z,2.83
2022-09-30T10:31:23.322Z,2.53
2022-09-30T10:34:12.010Z,3.42
2022-09-30T10:36:43.454Z,2.92
2022-09-30T10:39:34.624Z,6.03
2022-09-30T10:42:08.484Z,2.67
2022-09-30T10:44:44.430Z,2.25
2022-09-30T10:47:15.474Z,2.08
2022-09-30T10:49:57.060Z,2.28
2022-09-30T10:52:27.519Z,2.05
2022-09-30T10:55:00.365Z,2.42
2022-09-30T10:57:32.496Z,2.17
2022-09-30T11:00:05.741Z,2.78
2022-09-30T11:02:39.429Z,2.40
2022-09-30T11:05:20.342Z,3.33
2022-09-30T11:07:50.062Z,2.40
2022-09-30T11:10:42.222Z,2.30
2022-09-30T11:13:19.002Z,2.28
2022-09-30T11:16:11.065Z,2.58
2022-09-30T11:18:40.559Z,2.33
2022-09-30T11:21:37.555Z,2.60
2022-09-30T11:24:19.611Z,3.70
2022-09-30T11:27:15.296Z,2.53
2022-09-30T11:30:12.340Z,2.50
2022-09-30T11:32:52.361Z,4.25
2022-09-30T11:35:19.040Z,2.50
2022-09-30T11:37:57.664Z,2.92
2022-09-30T11:41:02.918Z,3.42
2022-09-30T11:43:29.858Z,2.67
2022-09-30T11:46:21.274Z,3.05
2022-09-30T11:48:57.143Z,5.32
2022-09-30T11:51:47.925Z,3.30
2022-09-30T11:54:43.760Z,4.35
2022-09-30T11:57:37.698Z,2.53
2022-09-30T12:00:19.162Z,2.22
2022-09-30T12:02:56.856Z,2.40
2022-09-30T12:05:34.871Z,2.70
2022-09-30T12:08:28.828Z,5.30
2022-09-30T12:11:12.583Z,2.92
2022-09-30T12:13:56.512Z,3.13
2022-09-30T12:16:30.670Z,2.53
2022-09-30T12:19:01.516Z,2.97
2022-09-30T12:21:40.437Z,5.25
2022-09-30T12:24:11.599Z,5.18
2022-09-30T12:26:41.181Z,2.50
2022-09-30T12:29:35.618Z,2.30
2022-09-30T12:32:23.400Z,2.95
2022-09-30T12:34:56.774Z,6.30
2022-09-30T12:37:58.513Z,2.80
2022-09-30T12:40:40.174Z,3.72
2022-09-30T12:43:06.835Z,5.22
2022-09-30T12:46:13.531Z,3.90
2022-09-30T12:49:01.503Z,3.33
2022-09-30T12:51:32.936Z,3.40
2022-09-30T12:54:07.416Z,3.95
2022-09-30T12:56:35.062Z,3.78
2022-09-30T12:59:03.776Z,3.25
2022-09-30T13:01:35.551Z,5.13
2022-09-30T13:04:02.260Z,3.10
2022-09-30T13:06:47.112Z,4.95
2022-09-30T13:09:16.914Z,4.50
2022-09-30T13:11:45.848Z,4.60
2022-09-30T13:14:20.251Z,4.70
2022-09-30T13:17:03.112Z,4.47
2022-09-30T13:19:40.413Z,3.42
2022-09-30T13:22:24.584Z,3.22
2022-09-30T13:24:57.779Z,3.17
2022-09-30T13:27:34.816Z,2.60
2022-09-30T13:30:03.130Z,2.40
2022-09-30T13:32:37.852Z,3.20
2022-09-30T13:35:30.558Z,8.32
2022-09-30T13:38:15.643Z,5.07
2022-09-30T13:41:04.529Z,2.15
2022-09-30T13:43:36.595Z,3.17
2022-09-30T13:46:14.910Z,2.72
2022-09-30T13:48:49.337Z,3.70
2022-09-30T13:51:18.800Z,3.00
2022-09-30T13:53:55.810Z,4.20
2022-09-30T13:56:26.624Z,3.42
2022-09-30T13:59:31.850Z,4.68
2022-09-30T14:02:13.701Z,3.55
2022-09-30T14:04:50.168Z,2.25
2022-09-30T14:07:37.724Z,3.38
2022-09-30T14:10:16.868Z,2.88
2022-09-30T14:12:50.052Z,4.35
2022-09-30T14:15:47.389Z,4.63
2022-09-30T14:18:38.175Z,3.53
2022-09-30T14:21:40.554Z,5.40
2022-09-30T14:24:17.545Z,3.97
2022-09-30T14:26:44.246Z,7.97
2022-09-30T14:29:27.962Z,4.07
2022-09-30T14:31:56.170Z,5.45
2022-09-30T14:34:25.717Z,5.85
2022-09-30T14:36:54.200Z,4.75
2022-09-30T14:39:28.290Z,4.63
2022-09-30T14:41:57.927Z,4.75
2022-09-30T14:44:29.991Z,6.07
2022-09-30T14:47:01.519Z,4.63
2022-09-30T14:49:36.083Z,7.03
2022-09-30T14:52:04.345Z,3.92
2022-09-30T14:54:33.198Z,3.08
2022-09-30T14:57:03.027Z,6.15
2022-09-30T14:59:33.227Z,3.60
2022-09-30T15:02:11.413Z,3.97
2022-09-30T15:04:42.643Z,4.68
2022-09-30T15:07:12.028Z,3.10
2022-09-30T15:09:42.267Z,6.43
2022-09-30T15:12:19.203Z,9.30
2022-09-30T15:14:51.322Z,3.25
2022-09-30T15:17:20.793Z,2.72
2022-09-30T15:19:50.256Z,4.07
2022-09-30T15:22:19.106Z,3.20
2022-09-30T15:24:48.616Z,3.17
2022-09-30T15:27:37.028Z,2.65
2022-09-30T15:30:16.877Z,5.00
2022-09-30T15:32:45.347Z,4.05
2022-09-30T15:35:17.115Z,7.70
2022-09-30T15:37:44.620Z,5.65
2022-09-30T15:40:38.899Z,3.83
2022-09-30T15:43:08.278Z,16.17
2022-09-30T15:45:37.952Z,7.47
2022-09-30T15:48:17.110Z,3.78
2022-09-30T15:50:49.750Z,4.22
2022-09-30T15:53:24.154Z,8.30
2022-09-30T15:55:59.186Z,14.23
2022-09-30T15:58:37.885Z,8.73
2022-09-30T16:01:22.112Z,6.80
2022-09-30T16:04:00.609Z,11.38
2022-09-30T16:06:36.932Z,5.63
2022-09-30T16:09:08.691Z,6.90
2022-09-30T16:11:41.323Z,8.27
2022-09-30T16:14:19.002Z,5.88
2022-09-30T16:16:55.241Z,7.10
2022-09-30T16:19:24.592Z,4.22
2022-09-30T16:21:53.074Z,3.42
2022-09-30T16:24:22.550Z,5.15
2022-09-30T16:26:50.173Z,3.05
2022-09-30T16:29:17.946Z,3.53
2022-09-30T16:31:47.550Z,4.82
2022-09-30T16:34:38.583Z,3.20
2022-09-30T16:37:18.141Z,3.83
2022-09-30T16:39:45.123Z,4.35
2022-09-30T16:42:16.394Z,8.20
2022-09-30T16:44:45.791Z,4.53
2022-09-30T16:47:14.442Z,4.15
2022-09-30T16:49:43.168Z,5.60
2022-09-30T16:52:11.550Z,4.63
2022-09-30T16:54:38.566Z,6.40
2022-09-30T16:57:05.278Z,3.97
2022-09-30T16:59:33.039Z,3.75
2022-09-30T17:02:01.136Z,6.45
2022-09-30T17:04:28.289Z,3.23
2022-09-30T17:06:57.408Z,3.13
2022-09-30T17:09:24.159Z,3.25
2022-09-30T17:11:53.255Z,4.17
2022-09-30T17:14:20.036Z,7.97
2022-09-30T17:16:48.371Z,3.67
2022-09-30T17:19:16.094Z,3.80
2022-09-30T17:21:42.962Z,3.47
2022-09-30T17:24:09.681Z,8.43
2022-09-30T17:26:37.094Z,3.97
2022-09-30T17:29:21.002Z,3.13
2022-09-30T17:31:53.816Z,3.50
2022-09-30T17:34:20.664Z,5.57
2022-09-30T17:36:47.988Z,5.50
2022-09-30T17:39:14.752Z,4.77
2022-09-30T17:41:59.975Z,4.47
2022-09-30T17:44:26.906Z,3.20
2022-09-30T17:47:00.180Z,4.87
2022-09-30T17:49:35.582Z,5.00
2022-09-30T17:52:04.254Z,6.83
2022-09-30T17:54:31.729Z,5.53
2022-09-30T17:56:58.619Z,11.70
2022-09-30T17:59:27.009Z,6.80
2022-09-30T18:01:56.502Z,4.83
2022-09-30T18:04:26.190Z,7.53
2022-09-30T18:06:54.300Z,5.60
2022-09-30T18:09:21.756Z,5.90
2022-09-30T18:11:50.302Z,11.10
2022-09-30T18:14:17.780Z,10.70
2022-09-30T18:16:45.690Z,9.37
2022-09-30T18:21:44.305Z,8.77
2022-09-30T18:24:11.030Z,11.40
2022-09-30T18:26:37.773Z,13.70
2022-09-30T18:29:06.182Z,11.37
2022-09-30T18:31:37.960Z,12.30
2022-09-30T18:34:06.276Z,10.83
2022-09-30T18:36:33.604Z,7.53
2022-09-30T18:39:02.904Z,9.87
2022-09-30T18:41:32.058Z,7.87
2022-09-30T18:44:03.255Z,10.17
2022-09-30T18:46:31.796Z,6.10
2022-09-30T18:48:58.612Z,8.00
2022-09-30T18:51:25.527Z,5.37
2022-09-30T18:53:56.089Z,6.00
2022-09-30T18:56:24.430Z,7.43
2022-09-30T18:58:54.267Z,5.83
2022-09-30T19:01:21.194Z,8.57
2022-09-30T19:03:49.251Z,8.60
2022-09-30T19:06:16.135Z,7.17
2022-09-30T19:08:43.628Z,5.80
2022-09-30T19:11:14.715Z,6.63
2022-09-30T19:13:43.260Z,6.03
2022-09-30T19:16:11.185Z,5.50
2022-09-30T19:18:39.817Z,11.80
2022-09-30T19:21:12.197Z,5.00
2022-09-30T19:23:40.232Z,6.30
2022-09-30T19:26:10.181Z,5.70
2022-09-30T19:28:38.301Z,5.33
2022-09-30T19:31:10.495Z,7.60
2022-09-30T19:33:38.520Z,6.03
2022-09-30T19:36:17.510Z,6.27
2022-09-30T19:38:46.240Z,5.97
2022-09-30T19:41:18.654Z,6.20
2022-09-30T19:43:49.710Z,4.70
2022-09-30T19:46:17.448Z,5.00
2022-09-30T19:48:45.213Z,5.77
2022-09-30T19:51:14.379Z,4.40
2022-09-30T19:53:45.597Z,5.37
2022-09-30T19:56:16.942Z,7.90
2022-09-30T19:58:47.677Z,4.40
2022-09-30T20:01:18.842Z,6.87
2022-09-30T20:03:46.070Z,13.03
2022-09-30T20:06:15.261Z,6.97
2022-09-30T20:08:44.904Z,4.90
2022-09-30T20:11:17.783Z,5.50
2022-09-30T20:13:44.507Z,7.33
2022-09-30T20:16:13.845Z,7.57
2022-09-30T20:18:42.068Z,5.20
2022-09-30T20:21:10.506Z,7.60
2022-09-30T20:23:40.805Z,5.50
2022-09-30T20:26:17.747Z,5.07
2022-09-30T20:28:44.478Z,5.97
2022-09-30T20:31:15.251Z,10.30
2022-09-30T20:33:42.830Z,6.57
2022-09-30T20:36:11.048Z,5.77
2022-09-30T20:38:38.986Z,6.07
2022-09-30T20:41:06.298Z,4.67
2022-09-30T20:43:34.003Z,7.03
2022-09-30T20:46:04.201Z,14.33
2022-09-30T20:48:33.652Z,6.57
2022-09-30T20:51:07.805Z,6.37
2022-09-30T20:53:36.594Z,6.83
2022-09-30T20:56:04.168Z,5.13
2022-09-30T20:58:30.876Z,8.20
2022-09-30T21:01:05.522Z,8.03
2022-09-30T21:03:39.014Z,7.37
2022-09-30T21:06:08.192Z,7.13
2022-09-30T21:08:39.514Z,8.67
2022-09-30T21:11:07.576Z,7.27
2022-09-30T21:13:35.323Z,11.83
2022-09-30T21:16:04.490Z,7.50
2022-09-30T21:18:32.036Z,14.67
2022-09-30T21:21:00.831Z,7.70
2022-09-30T21:23:33.303Z,7.57
2022-09-30T21:26:06.268Z,7.37
2022-09-30T21:28:33.286Z,7.93
2022-09-30T21:31:08.221Z,5.50
2022-09-30T21:33:36.150Z,8.63
2022-09-30T21:36:05.320Z,9.63
2022-09-30T21:38:34.302Z,7.90
2022-09-30T21:41:03.525Z,7.83
2022-09-30T21:43:31.862Z,6.93
2022-09-30T21:46:03.552Z,7.80
2022-09-30T21:48:32.579Z,8.17
2022-09-30T21:51:00.298Z,5.17
2022-09-30T21:53:27.919Z,8.20
2022-09-30T21:55:56.229Z,8.93
2022-09-30T21:58:25.327Z,6.80
2022-09-30T22:00:55.885Z,6.67
2022-09-30T22:03:23.550Z,6.60
2022-09-30T22:05:54.254Z,9.83
2022-09-30T22:08:22.206Z,7.07
2022-09-30T22:10:51.032Z,7.00
2022-09-30T22:13:18.716Z,9.53
2022-09-30T22:15:46.817Z,9.83
2022-09-30T22:18:19.584Z,7.80
2022-09-30T22:20:48.540Z,7.13
2022-09-30T22:23:15.372Z,9.73
2022-09-30T22:25:42.155Z,7.53
2022-09-30T22:28:09.096Z,7.57
2022-09-30T22:30:36.093Z,8.53
2022-09-30T22:33:21.065Z,9.40
2022-09-30T22:36:06.191Z,7.90
2022-09-30T22:38:32.880Z,6.87
2022-09-30T22:40:59.693Z,8.17
2022-09-30T22:43:26.962Z,8.70
2022-09-30T22:46:03.828Z,11.47
2022-09-30T22:48:31.267Z,12.27
2022-09-30T22:50:59.173Z,9.20
2022-09-30T22:53:27.061Z,10.50
2022-09-30T22:55:54.123Z,7.87
2022-09-30T22:58:26.954Z,8.63
2022-09-30T23:00:56.281Z,9.67
2022-09-30T23:03:25.471Z,11.87
2022-09-30T23:05:53.088Z,7.17
2022-09-30T23:08:20.193Z,8.20
2022-09-30T23:10:50.725Z,9.53
2022-09-30T23:13:20.108Z,11.43
2022-09-30T23:15:50.411Z,8.93
2022-09-30T23:18:17.342Z,9.23
2022-09-30T23:20:54.566Z,9.30
2022-09-30T23:23:21.245Z,12.30
2022-09-30T23:25:47.934Z,15.23
2022-09-30T23:28:14.765Z,20.20
2022-09-30T23:30:41.440Z,16.53
2022-09-30T23:33:10.136Z,11.83
2022-09-30T23:35:36.835Z,9.80
2022-09-30T23:38:03.483Z,10.93
2022-09-30T23:40:31.359Z,7.37
2022-09-30T23:42:58.057Z,9.60
2022-09-30T23:45:24.851Z,8.27
2022-09-30T23:47:51.644Z,12.67
2022-09-30T23:50:18.339Z,8.77
2022-09-30T23:52:45.136Z,9.73
2022-09-30T23:55:11.794Z,9.03
2022-09-30T23:57:38.559Z,19.37
